Time;durP1;ratioP1;P1;durP2;ratioP2;P2;SDS_P1;SDS_P2;PMS_P1;PMS_P2;Temp;Humidity;BMP_temperature;BMP_pressure;BME280_temperature;BME280_humidity;BME280_pressure;Samples;Min_cycle;Max_cycle;Signal;HPM_P1;HPM_P2
2023/04/08 00:01:54;;;;;;;;;;;;;;;;;;7367445;19;715;-63
2023/04/08 00:04:22;;;;;;;;;;;;;;;;;;7367906;19;798;-63
2023/04/08 00:06:50;;;;;;;;;;;;;;;;;;7367727;19;870;-63
2023/04/08 00:09:18;;;;;;;;;;;;;;;;;;7367220;19;1797;-64
2023/04/08 00:11:46;;;;;;;;;;;;;;;;;;7367301;19;1849;-61
2023/04/08 00:14:15;;;;;;;;;;;;;;;;;;7368127;19;812;-63
2023/04/08 00:16:43;;;;;;;;;;;;;;;;;;7367608;19;762;-63
2023/04/08 00:19:11;;;;;;;;;;;;;;;;;;7366665;19;1767;-63
2023/04/08 00:21:39;;;;;;;;;;;;;;;;;;7369967;19;1223;-62
2023/04/08 00:24:07;;;;;;;;;;;;;;;;;;7368317;19;775;-63
2023/04/08 00:26:36;;;;;;;;;;;;;;;;;;7367680;19;866;-62
2023/04/08 00:29:04;;;;;;;;;;;;;;;;;;7365569;19;1860;-63
2023/04/08 00:31:32;;;;;;;;;;;;;;;;;;7363956;19;1845;-65
2023/04/08 00:34:00;;;;;;;;;;;;;;;;;;7370180;19;910;-64
2023/04/08 00:36:29;;;;;;;;;;;;;;;;;;7365961;19;873;-62
2023/04/08 00:38:57;;;;;;;;;;;;;;;;;;7364575;19;1800;-62
2023/04/08 00:41:25;;;;;;;;;;;;;;;;;;7367078;19;869;-63
2023/04/08 00:43:53;;;;;;;;;;;;;;;;;;7367467;19;802;-62
2023/04/08 00:46:21;;;;;;;;;;;;;;;;;;7366368;19;875;-61
2023/04/08 00:48:50;;;;;;;;;;;;;;;;;;7366835;19;1650;-63
2023/04/08 00:51:18;;;;;;;;;;;;;;;;;;7367297;19;2075;-63
2023/04/08 00:53:46;;;;;;;;;;;;;;;;;;7365432;19;785;-62
2023/04/08 00:56:14;;;;;;;;;;;;;;;;;;7366906;19;852;-63
2023/04/08 00:58:42;;;;;;;;;;;;;;;;;;7365412;19;1780;-63
2023/04/08 01:01:10;;;;;;;;;;;;;;;;;;7365413;19;734;-62
2023/04/08 01:03:38;;;;;;;;;;;;;;;;;;7365206;19;811;-62
2023/04/08 01:06:07;;;;;;;;;;;;;;;;;;7365858;19;794;-63
2023/04/08 01:08:35;;;;;;;;;;;;;;;;;;7363618;19;1699;-63
2023/04/08 01:11:03;;;;;;;;;;;;;;;;;;7365238;19;1918;-63
2023/04/08 01:13:31;;;;;;;;;;;;;;;;;;7366362;19;826;-63
2023/04/08 01:15:59;;;;;;;;;;;;;;;;;;7365139;19;818;-63
2023/04/08 01:18:27;;;;;;;;;;;;;;;;;;7364479;19;1599;-63
2023/04/08 01:20:55;;;;;;;;;;;;;;;;;;7366351;19;870;-63
2023/04/08 01:23:24;;;;;;;;;;;;;;;;;;7366401;19;981;-62
2023/04/08 01:25:52;;;;;;;;;;;;;;;;;;7364350;19;818;-62
2023/04/08 01:28:20;;;;;;;;;;;;;;;;;;7362996;19;2158;-63
2023/04/08 01:30:48;;;;;;;;;;;;;;;;;;7364368;19;846;-63
2023/04/08 01:33:16;;;;;;;;;;;;;;;;;;7363208;19;1834;-63
2023/04/08 01:35:44;;;;;;;;;;;;;;;;;;7364742;19;811;-62
2023/04/08 01:38:13;;;;;;;;;;;;;;;;;;7363278;19;1887;-62
2023/04/08 01:40:41;;;;;;;;;;;;;;;;;;7364866;19;758;-63
2023/04/08 01:43:09;;;;;;;;;;;;;;;;;;7363869;19;813;-62
2023/04/08 01:45:39;;;;;;;;;;;;;;;;;;7364182;19;759;-62
2023/04/08 01:48:07;;;;;;;;;;;;;;;;;;7361077;19;2223;-62
2023/04/08 01:50:35;;;;;;;;;;;;;;;;;;7368563;19;1772;-62
2023/04/08 01:53:04;;;;;;;;;;;;;;;;;;7361350;19;1862;-63
2023/04/08 01:55:34;;;;;;;;;;;;;;;;;;7363624;19;682;-62
2023/04/08 01:58:02;;;;;;;;;;;;;;;;;;7361825;19;1803;-63
2023/04/08 02:00:30;;;;;;;;;;;;;;;;;;7364349;19;835;-61
2023/04/08 02:02:58;;;;;;;;;;;;;;;;;;7363181;19;818;-62
2023/04/08 02:05:26;;;;;;;;;;;;;;;;;;7366886;19;1867;-60
2023/04/08 02:07:54;;;;;;;;;;;;;;;;;;7361255;19;1352;-63
2023/04/08 02:10:23;;;;;;;;;;;;;;;;;;7367533;19;1849;-62
2023/04/08 02:12:51;;;;;;;;;;;;;;;;;;7363335;19;1851;-60
2023/04/08 02:15:19;;;;;;;;;;;;;;;;;;7364979;19;872;-62
2023/04/08 02:17:49;;;;;;;;;;;;;;;;;;7361744;19;1321;-62
2023/04/08 02:20:18;;;;;;;;;;;;;;;;;;7367486;19;2058;-62
2023/04/08 02:22:46;;;;;;;;;;;;;;;;;;7364694;19;860;-62
2023/04/08 02:25:14;;;;;;;;;;;;;;;;;;7364702;19;822;-64
2023/04/08 02:27:42;;;;;;;;;;;;;;;;;;7361099;19;1342;-61
2023/04/08 02:30:11;;;;;;;;;;;;;;;;;;7367902;19;1759;-63
2023/04/08 02:32:39;;;;;;;;;;;;;;;;;;7362726;19;1834;-63
2023/04/08 02:35:10;;;;;;;;;;;;;;;;;;7359590;19;1031;-62
2023/04/08 02:37:39;;;;;;;;;;;;;;;;;;7361729;19;1356;-62
2023/04/08 02:40:07;;;;;;;;;;;;;;;;;;7367525;19;1768;-63
2023/04/08 02:42:35;;;;;;;;;;;;;;;;;;7362460;19;762;-63
2023/04/08 02:45:04;;;;;;;;;;;;;;;;;;7363529;19;858;-62
2023/04/08 02:47:32;;;;;;;;;;;;;;;;;;7362902;19;1297;-62
2023/04/08 02:50:00;;;;;;;;;;;;;;;;;;7365322;19;1700;-62
2023/04/08 02:52:28;;;;;;;;;;;;;;;;;;7360688;19;1849;-62
2023/04/08 02:54:57;;;;;;;;;;;;;;;;;;7363171;19;849;-62
2023/04/08 02:57:25;;;;;;;;;;;;;;;;;;7362855;19;1247;-62
2023/04/08 02:59:53;;;;;;;;;;;;;;;;;;7366410;19;1824;-60
2023/04/08 03:02:21;;;;;;;;;;;;;;;;;;7363774;19;808;-62
2023/04/08 03:04:49;;;;;;;;;;;;;;;;;;7363850;19;810;-61
2023/04/08 03:07:17;;;;;;;;;;;;;;;;;;7362604;19;1290;-62
2023/04/08 03:09:45;;;;;;;;;;;;;;;;;;7366004;19;1803;-62
2023/04/08 03:12:13;;;;;;;;;;;;;;;;;;7362103;19;1849;-62
2023/04/08 03:14:42;;;;;;;;;;;;;;;;;;7362813;19;822;-61
2023/04/08 03:17:10;;;;;;;;;;;;;;;;;;7364526;19;1242;-62
2023/04/08 03:19:38;;;;;;;;;;;;;;;;;;7371004;19;1813;-60
2023/04/08 03:22:08;;;;;;;;;;;;;;;;;;7367868;19;787;-63
2023/04/08 03:24:36;;;;;;;;;;;;;;;;;;7368962;19;715;-62
2023/04/08 03:27:04;;;;;;;;;;;;;;;;;;7369146;19;826;-63
2023/04/08 03:29:33;;;;;;;;;;;;;;;;;;7369580;19;1847;-63
2023/04/08 03:32:01;;;;;;;;;;;;;;;;;;7369109;19;1861;-63
2023/04/08 03:34:29;;;;;;;;;;;;;;;;;;7369407;19;852;-61
2023/04/08 03:36:57;;;;;;;;;;;;;;;;;;7368675;19;807;-63
2023/04/08 03:39:25;;;;;;;;;;;;;;;;;;7366797;19;1800;-62
2023/04/08 03:41:53;;;;;;;;;;;;;;;;;;7368393;19;841;-63
2023/04/08 03:44:21;;;;;;;;;;;;;;;;;;7369120;19;826;-62
2023/04/08 03:46:50;;;;;;;;;;;;;;;;;;7368555;19;818;-62
2023/04/08 03:49:18;;;;;;;;;;;;;;;;;;7369081;19;1607;-62
2023/04/08 03:51:46;;;;;;;;;;;;;;;;;;7367940;19;802;-62
2023/04/08 03:54:14;;;;;;;;;;;;;;;;;;7365999;19;1850;-62
2023/04/08 03:56:42;;;;;;;;;;;;;;;;;;7367683;19;834;-62
2023/04/08 03:59:10;;;;;;;;;;;;;;;;;;7367831;19;1867;-62
2023/04/08 04:01:38;;;;;;;;;;;;;;;;;;7369636;19;1760;-62
2023/04/08 04:04:07;;;;;;;;;;;;;;;;;;7371587;19;1746;-63
2023/04/08 04:06:35;;;;;;;;;;;;;;;;;;7371281;19;1863;-62
2023/04/08 04:09:03;;;;;;;;;;;;;;;;;;7367414;19;1849;-63
2023/04/08 04:11:31;;;;;;;;;;;;;;;;;;7367863;19;803;-62
2023/04/08 04:13:59;;;;;;;;;;;;;;;;;;7365530;19;1853;-62
2023/04/08 04:16:27;;;;;;;;;;;;;;;;;;7367633;19;783;-63
2023/04/08 04:18:55;;;;;;;;;;;;;;;;;;7368408;19;1772;-63
2023/04/08 04:21:23;;;;;;;;;;;;;;;;;;7367966;19;842;-63
2023/04/08 04:23:52;;;;;;;;;;;;;;;;;;7368474;19;860;-63
2023/04/08 04:26:20;;;;;;;;;;;;;;;;;;7368342;19;802;-63
2023/04/08 04:28:48;;;;;;;;;;;;;;;;;;7365433;19;1831;-63
2023/04/08 04:31:16;;;;;;;;;;;;;;;;;;7367590;19;827;-64
2023/04/08 04:33:46;;;;;;;;;;;;;;;;;;7366522;19;1842;-63
2023/04/08 04:36:14;;;;;;;;;;;;;;;;;;7367431;19;914;-63
2023/04/08 04:38:42;;;;;;;;;;;;;;;;;;7367896;19;1786;-63
2023/04/08 04:41:10;;;;;;;;;;;;;;;;;;7367759;19;843;-62
2023/04/08 04:43:38;;;;;;;;;;;;;;;;;;7367919;19;937;-62
2023/04/08 04:46:07;;;;;;;;;;;;;;;;;;7367829;19;762;-63
2023/04/08 04:48:35;;;;;;;;;;;;;;;;;;7368209;19;1678;-64
2023/04/08 04:51:06;;;;;;;;;;;;;;;;;;7367529;19;747;-63
2023/04/08 04:53:34;;;;;;;;;;;;;;;;;;7366141;19;1857;-63
2023/04/08 04:56:02;;;;;;;;;;;;;;;;;;7366987;19;760;-64
2023/04/08 04:58:30;;;;;;;;;;;;;;;;;;7366852;19;1776;-63
2023/04/08 05:00:59;;;;;;;;;;;;;;;;;;7368505;19;1806;-63
2023/04/08 05:03:27;;;;;;;;;;;;;;;;;;7367373;19;791;-64
2023/04/08 05:05:55;;;;;;;;;;;;;;;;;;7364386;19;814;-64
2023/04/08 05:08:23;;;;;;;;;;;;;;;;;;7365443;19;1783;-63
2023/04/08 05:10:54;;;;;;;;;;;;;;;;;;7368644;19;1777;-63
2023/04/08 05:13:22;;;;;;;;;;;;;;;;;;7367025;19;1851;-63
2023/04/08 05:15:50;;;;;;;;;;;;;;;;;;7367181;19;735;-63
2023/04/08 05:18:18;;;;;;;;;;;;;;;;;;7360306;19;1702;-63
2023/04/08 05:20:47;;;;;;;;;;;;;;;;;;7369788;19;1916;-63
2023/04/08 05:23:15;;;;;;;;;;;;;;;;;;7362910;19;790;-63
2023/04/08 05:25:43;;;;;;;;;;;;;;;;;;7365260;19;864;-63
2023/04/08 05:28:11;;;;;;;;;;;;;;;;;;7365638;19;1829;-61
2023/04/08 05:30:39;;;;;;;;;;;;;;;;;;7369625;19;1767;-61
2023/04/08 05:33:07;;;;;;;;;;;;;;;;;;7364699;19;1839;-64
2023/04/08 05:35:35;;;;;;;;;;;;;;;;;;7365100;19;869;-62
2023/04/08 05:38:04;;;;;;;;;;;;;;;;;;7364404;19;1850;-64
2023/04/08 05:40:32;;;;;;;;;;;;;;;;;;7367140;19;1797;-62
2023/04/08 05:43:00;;;;;;;;;;;;;;;;;;7365235;19;884;-62
2023/04/08 05:45:28;;;;;;;;;;;;;;;;;;7364679;19;814;-64
2023/04/08 05:47:56;;;;;;;;;;;;;;;;;;7364560;19;1778;-63
2023/04/08 05:50:24;;;;;;;;;;;;;;;;;;7366630;19;1804;-63
2023/04/08 05:52:52;;;;;;;;;;;;;;;;;;7363332;19;1849;-63
2023/04/08 05:55:21;;;;;;;;;;;;;;;;;;7364473;19;835;-63
2023/04/08 05:57:49;;;;;;;;;;;;;;;;;;7364421;19;1776;-64
2023/04/08 06:00:17;;;;;;;;;;;;;;;;;;7366892;19;1684;-63
2023/04/08 06:02:45;;;;;;;;;;;;;;;;;;7365328;19;824;-63
2023/04/08 06:05:13;;;;;;;;;;;;;;;;;;7363529;19;779;-63
2023/04/08 06:07:41;;;;;;;;;;;;;;;;;;7362787;19;1266;-63
2023/04/08 06:10:10;;;;;;;;;;;;;;;;;;7365289;19;799;-63
2023/04/08 06:12:38;;;;;;;;;;;;;;;;;;7364681;19;1833;-63
2023/04/08 06:15:06;;;;;;;;;;;;;;;;;;7364101;19;832;-63
2023/04/08 06:17:35;;;;;;;;;;;;;;;;;;7363460;19;1329;-63
2023/04/08 06:20:03;;;;;;;;;;;;;;;;;;7364062;19;874;-63
2023/04/08 06:22:31;;;;;;;;;;;;;;;;;;7364217;19;830;-61
2023/04/08 06:24:59;;;;;;;;;;;;;;;;;;7364030;19;1804;-62
2023/04/08 06:27:27;;;;;;;;;;;;;;;;;;7366899;19;2060;-64
2023/04/08 06:29:56;;;;;;;;;;;;;;;;;;7363914;19;825;-64
2023/04/08 06:32:24;;;;;;;;;;;;;;;;;;7364221;19;867;-63
2023/04/08 06:34:52;;;;;;;;;;;;;;;;;;7361510;19;1848;-63
2023/04/08 06:37:20;;;;;;;;;;;;;;;;;;7367075;19;1634;-63
2023/04/08 06:39:48;;;;;;;;;;;;;;;;;;7363194;19;823;-63
2023/04/08 06:42:16;;;;;;;;;;;;;;;;;;7363839;19;797;-63
2023/04/08 06:44:55;;;;;;;;;;;;;;;;;;7361972;19;992;-64
2023/04/08 06:47:23;;;;;;;;;;;;;;;;;;7363092;19;1828;-63
2023/04/08 06:49:51;;;;;;;;;;;;;;;;;;7367210;19;1855;-62
2023/04/08 06:52:20;;;;;;;;;;;;;;;;;;7361648;19;822;-63
2023/04/08 06:54:48;;;;;;;;;;;;;;;;;;7359244;19;1809;-64
2023/04/08 06:57:16;;;;;;;;;;;;;;;;;;7362395;19;1331;-64
2023/04/08 06:59:45;;;;;;;;;;;;;;;;;;7362054;19;858;-64
2023/04/08 07:02:14;;;;;;;;;;;;;;;;;;7361830;19;929;-63
2023/04/08 07:04:42;;;;;;;;;;;;;;;;;;7362245;19;842;-63
2023/04/08 07:07:10;;;;;;;;;;;;;;;;;;7362134;19;907;-62
2023/04/08 07:09:40;;;;;;;;;;;;;;;;;;7362505;19;869;-64
2023/04/08 07:12:08;;;;;;;;;;;;;;;;;;7362714;19;839;-63
2023/04/08 07:14:36;;;;;;;;;;;;;;;;;;7360324;19;1852;-64
2023/04/08 07:17:04;;;;;;;;;;;;;;;;;;7362132;19;829;-63
2023/04/08 07:19:33;;;;;;;;;;;;;;;;;;7363611;19;1713;-64
2023/04/08 07:22:01;;;;;;;;;;;;;;;;;;7363145;19;802;-63
2023/04/08 07:24:29;;;;;;;;;;;;;;;;;;7362288;19;779;-63
2023/04/08 07:26:57;;;;;;;;;;;;;;;;;;7361016;19;800;-63
2023/04/08 07:29:26;;;;;;;;;;;;;;;;;;7359085;19;1321;-63
2023/04/08 07:31:55;;;;;;;;;;;;;;;;;;7366384;19;1841;-62
2023/04/08 07:34:23;;;;;;;;;;;;;;;;;;7360640;19;1849;-63
2023/04/08 07:36:51;;;;;;;;;;;;;;;;;;7362041;19;861;-63
2023/04/08 07:39:19;;;;;;;;;;;;;;;;;;7360230;19;1861;-63
2023/04/08 07:41:47;;;;;;;;;;;;;;;;;;7361743;19;790;-64
2023/04/08 07:44:16;;;;;;;;;;;;;;;;;;7361200;19;762;-64
2023/04/08 07:46:44;;;;;;;;;;;;;;;;;;7361732;19;803;-63
2023/04/08 07:49:12;;;;;;;;;;;;;;;;;;7357502;19;1254;-62
2023/04/08 07:51:40;;;;;;;;;;;;;;;;;;7364465;19;1817;-63
2023/04/08 07:54:09;;;;;;;;;;;;;;;;;;7359359;19;1866;-63
2023/04/08 07:56:39;;;;;;;;;;;;;;;;;;7360134;19;771;-62
2023/04/08 07:59:07;;;;;;;;;;;;;;;;;;7357978;19;1250;-63
2023/04/08 08:01:36;;;;;;;;;;;;;;;;;;7360648;19;823;-64
2023/04/08 08:04:04;;;;;;;;;;;;;;;;;;7364558;19;876;-64
2023/04/08 08:06:32;;;;;;;;;;;;;;;;;;7366948;19;802;-64
2023/04/08 08:09:00;;;;;;;;;;;;;;;;;;7364989;19;1356;-63
2023/04/08 08:11:29;;;;;;;;;;;;;;;;;;7366940;19;787;-63
2023/04/08 08:13:57;;;;;;;;;;;;;;;;;;7366643;19;1853;-63
2023/04/08 08:16:26;;;;;;;;;;;;;;;;;;7366739;19;758;-63
2023/04/08 08:18:54;;;;;;;;;;;;;;;;;;7366391;19;1351;-63
2023/04/08 08:21:22;;;;;;;;;;;;;;;;;;7367061;19;847;-62
2023/04/08 08:23:50;;;;;;;;;;;;;;;;;;7366760;19;830;-62
2023/04/08 08:26:18;;;;;;;;;;;;;;;;;;7366438;19;833;-64
2023/04/08 08:28:46;;;;;;;;;;;;;;;;;;7364218;19;1232;-64
2023/04/08 08:31:15;;;;;;;;;;;;;;;;;;7367476;19;798;-63
2023/04/08 08:33:43;;;;;;;;;;;;;;;;;;7367167;19;1861;-64
2023/04/08 08:36:11;;;;;;;;;;;;;;;;;;7366914;19;865;-64
2023/04/08 08:38:39;;;;;;;;;;;;;;;;;;7364447;19;1211;-64
2023/04/08 08:41:07;;;;;;;;;;;;;;;;;;7367937;19;836;-63
2023/04/08 08:43:35;;;;;;;;;;;;;;;;;;7367260;19;1114;-66
2023/04/08 08:46:04;;;;;;;;;;;;;;;;;;7366644;19;837;-63
2023/04/08 08:48:32;;;;;;;;;;;;;;;;;;7365246;19;1328;-63
2023/04/08 08:51:01;;;;;;;;;;;;;;;;;;7367109;19;782;-63
2023/04/08 08:53:29;;;;;;;;;;;;;;;;;;7363923;19;1855;-63
2023/04/08 08:55:57;;;;;;;;;;;;;;;;;;7366906;19;797;-64
2023/04/08 08:58:25;;;;;;;;;;;;;;;;;;7365148;19;1328;-64
2023/04/08 09:00:53;;;;;;;;;;;;;;;;;;7365290;19;803;-64
2023/04/08 09:03:22;;;;;;;;;;;;;;;;;;7366773;19;810;-64
2023/04/08 09:05:50;;;;;;;;;;;;;;;;;;7366802;19;865;-63
2023/04/08 09:08:18;;;;;;;;;;;;;;;;;;7364799;19;1368;-62
2023/04/08 09:10:46;;;;;;;;;;;;;;;;;;7367430;19;1328;-63
2023/04/08 09:13:14;;;;;;;;;;;;;;;;;;7367038;19;856;-63
2023/04/08 09:15:42;;;;;;;;;;;;;;;;;;7361616;19;1841;-64
2023/04/08 09:18:11;;;;;;;;;;;;;;;;;;7364388;19;1839;-64
2023/04/08 09:20:39;;;;;;;;;;;;;;;;;;7366437;19;901;-63
2023/04/08 09:23:07;;;;;;;;;;;;;;;;;;7366053;19;790;-64
2023/04/08 09:25:37;;;;;;;;;;;;;;;;;;7365755;19;852;-62
2023/04/08 09:28:05;;;;;;;;;;;;;;;;;;7364008;19;1282;-63
2023/04/08 09:30:33;;;;;;;;;;;;;;;;;;7366577;19;1300;-63
2023/04/08 09:33:05;;;;;;;;;;;;;;;;;;7365889;19;806;-64
2023/04/08 09:35:34;;;;;;;;;;;;;;;;;;7362922;19;1842;-63
2023/04/08 09:38:02;;;;;;;;;;;;;;;;;;7364144;19;1247;-63
2023/04/08 09:40:30;;;;;;;;;;;;;;;;;;7365693;19;806;-64
2023/04/08 09:42:58;;;;;;;;;;;;;;;;;;7365997;19;811;-62
2023/04/08 09:45:26;;;;;;;;;;;;;;;;;;7365898;19;798;-64
2023/04/08 09:47:54;;;;;;;;;;;;;;;;;;7366069;19;1799;-65
2023/04/08 09:50:23;;;;;;;;;;;;;;;;;;7368913;19;1626;-65
2023/04/08 09:52:53;;;;;;;;;;;;;;;;;;7365733;19;830;-65
2023/04/08 09:55:22;;;;;;;;;;;;;;;;;;7361818;19;1842;-64
2023/04/08 09:57:50;;;;;;;;;;;;;;;;;;7364495;19;1312;-64
2023/04/08 10:00:18;;;;;;;;;;;;;;;;;;7363014;19;1252;-62
2023/04/08 10:02:46;;;;;;;;;;;;;;;;;;7365430;19;937;-64
2023/04/08 10:05:14;;;;;;;;;;;;;;;;;;7365405;19;829;-63
2023/04/08 10:07:42;;;;;;;;;;;;;;;;;;7362217;19;1274;-64
2023/04/08 10:10:11;;;;;;;;;;;;;;;;;;7364550;19;829;-63
2023/04/08 10:12:39;;;;;;;;;;;;;;;;;;7367630;19;1434;-64
2023/04/08 10:15:07;;;;;;;;;;;;;;;;;;7365823;19;2085;-64
2023/04/08 10:17:35;;;;;;;;;;;;;;;;;;7365908;19;1536;-63
2023/04/08 10:20:04;;;;;;;;;;;;;;;;;;7368768;19;1880;-64
2023/04/08 10:22:32;;;;;;;;;;;;;;;;;;7363356;19;814;-64
2023/04/08 10:25:00;;;;;;;;;;;;;;;;;;7364617;19;866;-63
2023/04/08 10:27:28;;;;;;;;;;;;;;;;;;7360798;19;1302;-64
2023/04/08 10:29:56;;;;;;;;;;;;;;;;;;7364060;19;794;-64
2023/04/08 10:32:24;;;;;;;;;;;;;;;;;;7368758;19;1300;-64
2023/04/08 10:34:53;;;;;;;;;;;;;;;;;;7363643;19;1864;-63
2023/04/08 10:37:21;;;;;;;;;;;;;;;;;;7362911;19;1325;-64
2023/04/08 10:39:50;;;;;;;;;;;;;;;;;;7363433;19;813;-64
2023/04/08 10:42:18;;;;;;;;;;;;;;;;;;7364532;19;822;-65
2023/04/08 10:44:46;;;;;;;;;;;;;;;;;;7364190;19;830;-65
2023/04/08 10:47:14;;;;;;;;;;;;;;;;;;7363786;19;1282;-63
2023/04/08 10:49:43;;;;;;;;;;;;;;;;;;7362196;19;778;-64
2023/04/08 10:52:11;;;;;;;;;;;;;;;;;;7364677;19;798;-63
2023/04/08 10:54:40;;;;;;;;;;;;;;;;;;7362756;19;1841;-64
2023/04/08 10:57:08;;;;;;;;;;;;;;;;;;7363261;19;766;-64
2023/04/08 10:59:38;;;;;;;;;;;;;;;;;;7358684;19;1326;-63
2023/04/08 11:02:06;;;;;;;;;;;;;;;;;;7363830;19;646;-65
2023/04/08 11:04:35;;;;;;;;;;;;;;;;;;7363030;19;821;-65
2023/04/08 11:07:03;;;;;;;;;;;;;;;;;;7363435;19;771;-63
2023/04/08 11:09:31;;;;;;;;;;;;;;;;;;7358256;19;1430;-64
2023/04/08 11:12:00;;;;;;;;;;;;;;;;;;7363768;19;839;-65
2023/04/08 11:14:29;;;;;;;;;;;;;;;;;;7363133;19;1841;-64
2023/04/08 11:16:57;;;;;;;;;;;;;;;;;;7361390;19;814;-65
2023/04/08 11:19:25;;;;;;;;;;;;;;;;;;7359870;19;1263;-65
2023/04/08 11:21:53;;;;;;;;;;;;;;;;;;7362723;19;853;-64
2023/04/08 11:24:21;;;;;;;;;;;;;;;;;;7362825;19;846;-64
2023/04/08 11:26:49;;;;;;;;;;;;;;;;;;7362469;19;819;-64
2023/04/08 11:29:18;;;;;;;;;;;;;;;;;;7359691;19;1289;-64
2023/04/08 11:31:48;;;;;;;;;;;;;;;;;;7362775;19;847;-64
2023/04/08 11:34:16;;;;;;;;;;;;;;;;;;7363046;19;1871;-64
2023/04/08 11:36:45;;;;;;;;;;;;;;;;;;7363463;19;700;-63
2023/04/08 11:39:13;;;;;;;;;;;;;;;;;;7364529;19;1255;-64
2023/04/08 11:41:41;;;;;;;;;;;;;;;;;;7369145;19;866;-63
2023/04/08 11:44:09;;;;;;;;;;;;;;;;;;7368213;19;778;-65
2023/04/08 11:46:39;;;;;;;;;;;;;;;;;;7366696;19;854;-65
2023/04/08 11:49:08;;;;;;;;;;;;;;;;;;7366523;19;1269;-64
2023/04/08 11:51:36;;;;;;;;;;;;;;;;;;7368672;19;825;-63
2023/04/08 11:54:05;;;;;;;;;;;;;;;;;;7367945;19;814;-63
2023/04/08 11:56:33;;;;;;;;;;;;;;;;;;7366472;19;1853;-64
2023/04/08 11:59:01;;;;;;;;;;;;;;;;;;7366238;19;1274;-63
2023/04/08 12:01:30;;;;;;;;;;;;;;;;;;7367204;19;802;-64
2023/04/08 12:03:58;;;;;;;;;;;;;;;;;;7368713;19;806;-64
2023/04/08 12:06:26;;;;;;;;;;;;;;;;;;7367522;19;790;-65
2023/04/08 12:08:54;;;;;;;;;;;;;;;;;;7366843;19;1258;-65
2023/04/08 12:11:23;;;;;;;;;;;;;;;;;;7367997;19;857;-65
2023/04/08 12:13:51;;;;;;;;;;;;;;;;;;7368534;19;874;-65
2023/04/08 12:16:20;;;;;;;;;;;;;;;;;;7366484;19;1858;-65
2023/04/08 12:18:49;;;;;;;;;;;;;;;;;;7365985;19;1352;-66
2023/04/08 12:21:17;;;;;;;;;;;;;;;;;;7367001;19;848;-65
2023/04/08 12:23:45;;;;;;;;;;;;;;;;;;7365529;19;1603;-65
2023/04/08 12:26:13;;;;;;;;;;;;;;;;;;7367424;19;778;-65
2023/04/08 12:28:41;;;;;;;;;;;;;;;;;;7366281;19;1286;-65
2023/04/08 12:31:09;;;;;;;;;;;;;;;;;;7367796;19;870;-65
2023/04/08 12:33:37;;;;;;;;;;;;;;;;;;7368172;19;790;-65
2023/04/08 12:36:06;;;;;;;;;;;;;;;;;;7365782;19;1869;-65
2023/04/08 12:38:34;;;;;;;;;;;;;;;;;;7366290;19;1286;-66
2023/04/08 12:41:02;;;;;;;;;;;;;;;;;;7367468;19;827;-65
2023/04/08 12:43:31;;;;;;;;;;;;;;;;;;7367492;19;751;-65
2023/04/08 12:46:00;;;;;;;;;;;;;;;;;;7371384;19;1627;-65
2023/04/08 12:48:28;;;;;;;;;;;;;;;;;;7365204;19;1262;-65
2023/04/08 12:50:57;;;;;;;;;;;;;;;;;;7364907;19;797;-66
2023/04/08 12:53:25;;;;;;;;;;;;;;;;;;7365129;19;819;-64
2023/04/08 12:55:55;;;;;;;;;;;;;;;;;;7365510;19;1849;-65
2023/04/08 12:58:24;;;;;;;;;;;;;;;;;;7365813;19;1301;-65
2023/04/08 13:00:52;;;;;;;;;;;;;;;;;;7366802;19;836;-65
2023/04/08 13:03:20;;;;;;;;;;;;;;;;;;7367584;19;797;-65
2023/04/08 13:05:48;;;;;;;;;;;;;;;;;;7367401;19;777;-65
2023/04/08 13:08:16;;;;;;;;;;;;;;;;;;7365079;19;1362;-65
2023/04/08 13:10:44;;;;;;;;;;;;;;;;;;7366780;19;826;-65
2023/04/08 13:13:13;;;;;;;;;;;;;;;;;;7366320;19;794;-66
2023/04/08 13:15:41;;;;;;;;;;;;;;;;;;7363861;19;1854;-65
2023/04/08 13:18:09;;;;;;;;;;;;;;;;;;7365061;19;1277;-66
2023/04/08 13:20:37;;;;;;;;;;;;;;;;;;7367109;19;877;-65
2023/04/08 13:23:05;;;;;;;;;;;;;;;;;;7367163;19;870;-65
2023/04/08 13:25:33;;;;;;;;;;;;;;;;;;7366394;19;852;-65
2023/04/08 13:28:02;;;;;;;;;;;;;;;;;;7365541;19;1262;-66
2023/04/08 13:30:30;;;;;;;;;;;;;;;;;;7367729;19;770;-65
2023/04/08 13:32:58;;;;;;;;;;;;;;;;;;7366280;19;826;-65
2023/04/08 13:35:26;;;;;;;;;;;;;;;;;;7364833;19;1837;-65
2023/04/08 13:37:54;;;;;;;;;;;;;;;;;;7364610;19;1332;-65
2023/04/08 13:40:23;;;;;;;;;;;;;;;;;;7366071;19;829;-64
2023/04/08 13:42:51;;;;;;;;;;;;;;;;;;7365463;19;783;-64
2023/04/08 13:45:19;;;;;;;;;;;;;;;;;;7366228;19;867;-64
2023/04/08 13:47:47;;;;;;;;;;;;;;;;;;7367821;19;1292;-66
2023/04/08 13:50:16;;;;;;;;;;;;;;;;;;7365837;19;849;-66
2023/04/08 13:52:44;;;;;;;;;;;;;;;;;;7365257;19;872;-66
2023/04/08 13:55:12;;;;;;;;;;;;;;;;;;7365543;19;1833;-65
2023/04/08 13:57:40;;;;;;;;;;;;;;;;;;7363232;19;1713;-63
2023/04/08 14:00:09;;;;;;;;;;;;;;;;;;7362701;19;841;-66
2023/04/08 14:02:39;;;;;;;;;;;;;;;;;;7364911;19;1251;-65
2023/04/08 14:05:07;;;;;;;;;;;;;;;;;;7365679;19;804;-65
2023/04/08 14:07:36;;;;;;;;;;;;;;;;;;7365113;19;1273;-65
2023/04/08 14:10:04;;;;;;;;;;;;;;;;;;7364734;19;861;-66
2023/04/08 14:12:32;;;;;;;;;;;;;;;;;;7367753;19;1815;-65
2023/04/08 14:15:01;;;;;;;;;;;;;;;;;;7360638;19;1849;-66
2023/04/08 14:17:29;;;;;;;;;;;;;;;;;;7364315;19;1338;-66
2023/04/08 14:19:59;;;;;;;;;;;;;;;;;;7364669;19;825;-65
2023/04/08 14:22:27;;;;;;;;;;;;;;;;;;7364997;19;1250;-65
2023/04/08 14:24:56;;;;;;;;;;;;;;;;;;7365622;19;1741;-65
2023/04/08 14:27:24;;;;;;;;;;;;;;;;;;7365936;19;2045;-65
2023/04/08 14:29:52;;;;;;;;;;;;;;;;;;7364155;19;813;-65
2023/04/08 14:32:20;;;;;;;;;;;;;;;;;;7365167;19;801;-65
2023/04/08 14:34:48;;;;;;;;;;;;;;;;;;7365532;19;830;-65
2023/04/08 14:37:17;;;;;;;;;;;;;;;;;;7365114;19;2036;-65
2023/04/08 14:39:45;;;;;;;;;;;;;;;;;;7360084;19;1765;-65
2023/04/08 14:42:15;;;;;;;;;;;;;;;;;;7364232;19;1818;-65
2023/04/08 14:44:43;;;;;;;;;;;;;;;;;;7364827;19;788;-66
2023/04/08 14:47:12;;;;;;;;;;;;;;;;;;7366005;19;1649;-67
2023/04/08 14:49:40;;;;;;;;;;;;;;;;;;7360619;19;1866;-65
2023/04/08 14:52:08;;;;;;;;;;;;;;;;;;7368348;19;1804;-66
2023/04/08 14:54:36;;;;;;;;;;;;;;;;;;7363082;19;1321;-66
2023/04/08 14:57:04;;;;;;;;;;;;;;;;;;7365554;19;1846;-65
2023/04/08 14:59:33;;;;;;;;;;;;;;;;;;7356698;19;1712;-65
2023/04/08 15:02:01;;;;;;;;;;;;;;;;;;7361672;19;1764;-65
2023/04/08 15:04:29;;;;;;;;;;;;;;;;;;7365081;19;978;-66
2023/04/08 15:06:57;;;;;;;;;;;;;;;;;;7364539;19;849;-66
2023/04/08 15:09:25;;;;;;;;;;;;;;;;;;7359623;19;1732;-65
2023/04/08 15:11:54;;;;;;;;;;;;;;;;;;7368160;19;1698;-66
2023/04/08 15:14:22;;;;;;;;;;;;;;;;;;7371815;19;1763;-64
2023/04/08 15:16:50;;;;;;;;;;;;;;;;;;7369803;19;1857;-66
2023/04/08 15:19:19;;;;;;;;;;;;;;;;;;7371485;19;1844;-65
2023/04/08 15:21:48;;;;;;;;;;;;;;;;;;7370621;19;1767;-65
2023/04/08 15:24:16;;;;;;;;;;;;;;;;;;7370666;19;849;-65
2023/04/08 15:26:44;;;;;;;;;;;;;;;;;;7372641;19;1834;-65
2023/04/08 15:29:12;;;;;;;;;;;;;;;;;;7370241;19;1685;-64
2023/04/08 15:31:40;;;;;;;;;;;;;;;;;;7372430;19;1706;-64
2023/04/08 15:34:09;;;;;;;;;;;;;;;;;;7369272;19;1825;-64
2023/04/08 15:36:38;;;;;;;;;;;;;;;;;;7372581;19;1856;-64
2023/04/08 15:39:06;;;;;;;;;;;;;;;;;;7366920;19;1322;-64
2023/04/08 15:41:35;;;;;;;;;;;;;;;;;;7368809;19;830;-64
2023/04/08 15:44:03;;;;;;;;;;;;;;;;;;7369595;19;2216;-64
2023/04/08 15:46:31;;;;;;;;;;;;;;;;;;7370248;19;1827;-65
2023/04/08 15:49:00;;;;;;;;;;;;;;;;;;7370519;19;1949;-64
2023/04/08 15:51:28;;;;;;;;;;;;;;;;;;7369364;19;822;-65
2023/04/08 15:53:56;;;;;;;;;;;;;;;;;;7370892;19;1815;-65
2023/04/08 15:56:25;;;;;;;;;;;;;;;;;;7368868;19;1833;-65
2023/04/08 15:58:54;;;;;;;;;;;;;;;;;;7367870;19;1852;-65
2023/04/08 16:01:22;;;;;;;;;;;;;;;;;;7373065;19;1790;-65
2023/04/08 16:03:50;;;;;;;;;;;;;;;;;;7368203;19;736;-65
2023/04/08 16:06:18;;;;;;;;;;;;;;;;;;7373530;19;1638;-65
2023/04/08 16:08:47;;;;;;;;;;;;;;;;;;7366358;19;1271;-65
2023/04/08 16:11:16;;;;;;;;;;;;;;;;;;7367510;19;843;-65
2023/04/08 16:13:45;;;;;;;;;;;;;;;;;;7369852;19;782;-64
2023/04/08 16:16:13;;;;;;;;;;;;;;;;;;7370186;19;1902;-64
2023/04/08 16:18:43;;;;;;;;;;;;;;;;;;7367346;19;1448;-65
2023/04/08 16:21:11;;;;;;;;;;;;;;;;;;7368616;19;808;-65
2023/04/08 16:23:39;;;;;;;;;;;;;;;;;;7368086;19;862;-65
2023/04/08 16:26:08;;;;;;;;;;;;;;;;;;7369810;19;1870;-65
2023/04/08 16:28:37;;;;;;;;;;;;;;;;;;7367822;19;1610;-65
2023/04/08 16:31:05;;;;;;;;;;;;;;;;;;7367934;19;845;-65
2023/04/08 16:33:34;;;;;;;;;;;;;;;;;;7370046;19;1854;-65
2023/04/08 16:36:03;;;;;;;;;;;;;;;;;;7366708;19;1841;-65
2023/04/08 16:38:31;;;;;;;;;;;;;;;;;;7364103;19;1289;-65
2023/04/08 16:41:00;;;;;;;;;;;;;;;;;;7366745;19;786;-65
2023/04/08 16:43:28;;;;;;;;;;;;;;;;;;7370947;19;1817;-65
2023/04/08 16:45:56;;;;;;;;;;;;;;;;;;7370782;19;1791;-65
2023/04/08 16:48:24;;;;;;;;;;;;;;;;;;7364986;19;1337;-65
2023/04/08 16:50:53;;;;;;;;;;;;;;;;;;7367316;19;786;-65
2023/04/08 16:53:21;;;;;;;;;;;;;;;;;;7371528;19;1857;-65
2023/04/08 16:55:49;;;;;;;;;;;;;;;;;;7368051;19;1861;-65
2023/04/08 16:58:17;;;;;;;;;;;;;;;;;;7365765;19;1828;-65
2023/04/08 17:00:45;;;;;;;;;;;;;;;;;;7365193;19;1806;-64
2023/04/08 17:03:13;;;;;;;;;;;;;;;;;;7364937;19;805;-65
2023/04/08 17:05:42;;;;;;;;;;;;;;;;;;7368094;19;1763;-65
2023/04/08 17:08:10;;;;;;;;;;;;;;;;;;7364100;19;1262;-65
2023/04/08 17:10:38;;;;;;;;;;;;;;;;;;7367171;19;853;-65
2023/04/08 17:13:06;;;;;;;;;;;;;;;;;;7366865;19;790;-65
2023/04/08 17:15:34;;;;;;;;;;;;;;;;;;7366621;19;819;-65
2023/04/08 17:18:02;;;;;;;;;;;;;;;;;;7363139;19;1857;-65